Time;durP1;ratioP1;P1;durP2;ratioP2;P2;SDS_P1;SDS_P2;PMS_P1;PMS_P2;Temp;Humidity;BMP_temperature;BMP_pressure;BME280_temperature;BME280_humidity;BME280_pressure;Samples;Min_cycle;Max_cycle;Signal;HPM_P1;HPM_P2
2021/03/28 00:01:09;;;;;;;9.63;4.15;;;;;;;3.44;73.46;98039.06;5018760;28;20125;-63
2021/03/28 00:03:42;;;;;;;30.40;18.98;;;;;;;3.44;73.98;98037.16;5031696;28;20068;-59
2021/03/28 00:06:13;;;;;;;9.57;4.60;;;;;;;3.46;74.32;98034.16;5007612;28;20076;-65
2021/03/28 00:08:43;;;;;;;27.50;17.00;;;;;;;3.45;74.84;98037.94;5020162;28;20124;-61
2021/03/28 00:11:21;;;;;;;11.65;5.65;;;;;;;3.41;75.58;98036.91;5015761;28;20044;-61
2021/03/28 00:13:54;;;;;;;16.58;10.30;;;;;;;3.43;75.75;98042.84;5021320;28;20577;-59
2021/03/28 00:16:23;;;;;;;19.50;10.95;;;;;;;3.37;74.96;98036.69;5011497;28;20065;-60
2021/03/28 00:18:52;;;;;;;35.60;18.27;;;;;;;3.32;76.05;98035.94;5021408;28;20036;-60
2021/03/28 00:21:24;;;;;;;10.70;5.70;;;;;;;3.34;75.48;98039.97;5004750;28;20041;-62
2021/03/28 00:23:58;;;;;;;6.97;3.30;;;;;;;3.40;74.91;98040.72;5021612;28;20495;-60
2021/03/28 00:26:29;;;;;;;9.13;3.22;;;;;;;3.42;75.64;98036.63;4995979;28;20051;-62
2021/03/28 00:29:09;;;;;;;7.05;3.03;;;;;;;3.54;75.69;98043.56;5023185;28;20073;-57
2021/03/28 00:31:55;;;;;;;5.10;2.90;;;;;;;3.73;75.88;98039.00;5009272;28;20046;-62
2021/03/28 00:34:35;;;;;;;7.90;3.45;;;;;;;3.79;74.20;98031.63;4995123;28;20038;-59
2021/03/28 00:37:09;;;;;;;8.48;3.70;;;;;;;3.39;73.76;98023.66;5002318;28;20525;-60
2021/03/28 00:39:38;;;;;;;5.97;3.30;;;;;;;3.23;75.52;98027.63;5021747;28;20053;-59
2021/03/28 00:42:10;;;;;;;11.55;5.85;;;;;;;3.14;76.05;98029.34;5015161;28;20061;-60
2021/03/28 00:44:48;;;;;;;9.32;3.17;;;;;;;3.18;76.15;98030.38;5028996;28;20131;-57
2021/03/28 00:47:19;;;;;;;4.55;2.97;;;;;;;3.25;76.17;98031.66;5007971;28;20041;-60
2021/03/28 00:49:47;;;;;;;6.88;3.08;;;;;;;3.29;75.40;98028.38;5023960;28;20433;-59
2021/03/28 00:52:15;;;;;;;9.00;2.88;;;;;;;3.39;75.12;98037.19;5019177;28;20049;-61
2021/03/28 00:54:57;;;;;;;6.13;2.72;;;;;;;3.54;75.40;98027.31;5020726;28;20061;-61
2021/03/28 00:57:28;;;;;;;5.65;2.80;;;;;;;3.68;74.29;98027.41;5019342;28;20611;-62
2021/03/28 01:00:31;;;;;;;5.72;2.75;;;;;;;3.53;73.91;98018.38;5023242;28;20042;-62
2021/03/28 01:03:30;;;;;;;6.97;2.80;;;;;;;3.48;74.16;98010.31;5024529;28;20398;-58
2021/03/28 01:06:01;;;;;;;;;;;;;;;3.47;74.77;98007.88;5026222;28;20564;-60
2021/03/28 01:08:36;;;;;;;6.90;2.90;;;;;;;3.38;75.46;98004.97;5023003;28;19951;-62
2021/03/28 01:11:18;;;;;;;5.28;2.65;;;;;;;3.33;75.41;98002.31;5030243;28;20490;-60
2021/03/28 01:14:05;;;;;;;10.90;4.03;;;;;;;3.17;75.60;98004.38;5023510;28;20085;-61
2021/03/28 01:17:08;;;;;;;8.18;3.25;;;;;;;3.08;76.19;98000.69;5023940;28;20740;-58
2021/03/28 01:20:09;;;;;;;5.72;2.72;;;;;;;3.00;77.10;97994.81;5023042;28;20059;-62
2021/03/28 01:22:50;;;;;;;7.90;2.70;;;;;;;2.91;77.38;97995.72;5011284;28;20080;-62
2021/03/28 01:25:30;;;;;;;6.13;3.08;;;;;;;2.91;78.25;97995.72;5004634;28;20101;-60
2021/03/28 01:28:12;;;;;;;7.20;3.25;;;;;;;2.93;78.80;97991.63;4988413;28;20053;-58
2021/03/28 01:30:46;;;;;;;5.55;3.35;;;;;;;2.94;78.09;97997.88;4983679;28;20058;-60
2021/03/28 01:33:17;;;;;;;6.65;2.97;;;;;;;2.90;78.31;97997.63;4978897;28;20088;-61
2021/03/28 01:35:59;;;;;;;5.45;2.88;;;;;;;2.95;79.08;97994.84;4975852;28;20054;-61
2021/03/28 01:38:28;;;;;;;8.02;3.05;;;;;;;2.92;77.96;97990.03;4976726;28;20052;-62
2021/03/28 01:41:15;;;;;;;4.97;2.85;;;;;;;2.97;78.38;97989.16;4985872;28;20054;-62
2021/03/28 01:43:50;;;;;;;5.57;2.65;;;;;;;3.08;77.62;97982.56;5005170;28;20288;-61
2021/03/28 01:46:51;;;;;;;7.13;2.67;;;;;;;3.21;76.81;97989.19;4982038;28;20042;-60
2021/03/28 01:49:48;;;;;;;5.20;3.35;;;;;;;3.40;76.93;97990.09;5013459;28;20042;-61
2021/03/28 01:52:42;;;;;;;4.38;2.45;;;;;;;2.89;78.42;97979.75;5012890;28;20034;-60
2021/03/28 01:55:31;;;;;;;6.90;2.97;;;;;;;2.51;78.96;97982.25;4998771;28;20045;-60
2021/03/28 01:58:12;;;;;;;4.85;3.45;;;;;;;2.44;79.39;97981.75;5003714;28;20509;-59
2021/03/28 02:00:56;;;;;;;7.38;3.13;;;;;;;2.38;79.27;97977.50;5003448;28;20068;-62
2021/03/28 02:03:43;;;;;;;9.20;3.10;;;;;;;2.38;79.88;97981.00;4998878;28;20081;-62
2021/03/28 02:06:12;;;;;;;5.82;2.92;;;;;;;2.44;80.25;97973.66;4998956;28;20037;-59
2021/03/28 02:09:11;;;;;;;7.28;2.50;;;;;;;2.47;79.70;97973.91;5004090;28;20048;-58
2021/03/28 02:11:46;;;;;;;5.72;2.60;;;;;;;2.47;78.68;97976.59;4982062;28;20042;-57
2021/03/28 02:14:39;;;;;;;7.60;3.30;;;;;;;2.41;78.74;97975.03;4981197;28;20120;-60
2021/03/28 02:17:25;;;;;;;6.28;2.85;;;;;;;2.27;79.57;97974.06;4980920;28;20068;-59
2021/03/28 02:20:09;;;;;;;4.82;2.88;;;;;;;2.18;79.54;97965.72;4983626;28;20054;-56
2021/03/28 02:22:57;;;;;;;5.70;3.50;;;;;;;2.29;80.02;97963.75;5003161;28;20056;-59
2021/03/28 02:25:44;;;;;;;6.88;2.75;;;;;;;2.37;80.22;97967.75;5019115;28;20517;-63
2021/03/28 02:28:14;;;;;;;5.45;2.97;;;;;;;2.42;80.06;97965.81;5000088;28;20648;-60
2021/03/28 02:30:43;;;;;;;;;;;;;;;2.42;79.13;97965.81;5021844;28;20118;-56
2021/03/28 02:33:30;;;;;;;5.15;2.88;;;;;;;2.24;78.61;97967.28;5000375;28;20270;-64
2021/03/28 02:36:22;;;;;;;8.43;2.92;;;;;;;2.09;79.32;97968.22;4984514;28;20133;-59
2021/03/28 02:39:00;;;;;;;5.38;2.92;;;;;;;1.98;78.82;97971.25;4962325;28;20046;-58
2021/03/28 02:41:37;;;;;;;6.85;2.65;;;;;;;1.91;79.15;97968.88;4983589;28;20051;-60
2021/03/28 02:44:26;;;;;;;5.75;2.92;;;;;;;1.89;79.42;97982.66;4994586;28;20035;-66
2021/03/28 02:47:04;;;;;;;9.67;3.30;;;;;;;1.83;79.14;97978.34;4988649;28;20038;-59
2021/03/28 02:49:57;;;;;;;6.30;3.15;;;;;;;1.70;82.04;97981.66;4982439;28;20042;-56
2021/03/28 02:52:57;;;;;;;6.70;3.00;;;;;;;1.51;83.34;97981.47;4978263;28;20351;-57
2021/03/28 02:55:37;;;;;;;8.95;3.55;;;;;;;1.37;84.00;97978.56;4973050;28;20082;-59
2021/03/28 02:58:09;;;;;;;12.95;3.53;;;;;;;1.34;84.18;97979.91;4973067;28;20041;-64
2021/03/28 03:00:59;;;;;;;5.85;3.30;;;;;;;1.56;84.46;97975.25;4982987;28;20372;-59
2021/03/28 03:03:27;;;;;;;7.35;3.65;;;;;;;1.75;83.39;97978.13;4988740;28;20060;-57
2021/03/28 03:06:05;;;;;;;9.23;2.90;;;;;;;1.85;82.43;97969.97;5002055;28;20053;-58
2021/03/28 03:08:40;;;;;;;7.70;3.22;;;;;;;1.89;82.29;97973.72;5004710;28;20569;-58
2021/03/28 03:11:21;;;;;;;9.38;4.13;;;;;;;1.89;82.49;97968.31;4995325;28;20060;-61
2021/03/28 03:14:09;;;;;;;5.30;2.78;;;;;;;1.68;82.20;97973.03;5002906;28;20046;-58
2021/03/28 03:17:12;;;;;;;3.97;2.38;;;;;;;1.69;82.85;97969.25;5001007;28;20495;-58
2021/03/28 03:20:01;;;;;;;4.43;2.85;;;;;;;1.71;82.13;97969.75;4999167;28;20507;-58
2021/03/28 03:23:31;;;;;;;6.05;3.75;;;;;;;1.67;82.54;97974.91;4978622;28;20054;-59
2021/03/28 03:26:08;;;;;;;;;;;;;;;1.66;82.81;97969.81;4948878;28;20427;-59
2021/03/28 03:29:11;;;;;;;3.60;2.75;;;;;;;1.60;81.75;97960.09;4990615;28;19932;-62
2021/03/28 03:32:08;;;;;;;6.50;3.63;;;;;;;1.28;81.92;97970.22;4998069;28;20076;-61
2021/03/28 03:35:02;;;;;;;5.93;2.85;;;;;;;1.06;83.39;97972.44;4997296;28;20042;-60
2021/03/28 03:37:42;;;;;;;5.50;3.22;;;;;;;0.93;83.88;97988.09;4994108;28;20053;-58
2021/03/28 03:40:47;;;;;;;6.47;3.33;;;;;;;1.07;84.61;97977.56;4996932;28;20641;-58
2021/03/28 03:43:31;;;;;;;7.45;3.08;;;;;;;1.20;84.65;97973.47;5016700;23;20216;-62
2021/03/28 03:46:04;;;;;;;6.15;2.83;;;;;;;1.26;83.50;97977.78;5030927;28;20057;-62
2021/03/28 03:48:51;;;;;;;7.65;3.40;;;;;;;1.33;83.25;97983.72;5020143;28;20557;-63
2021/03/28 03:51:25;;;;;;;3.65;2.53;;;;;;;1.32;82.31;97982.06;5017122;28;20075;-63
2021/03/28 03:54:02;;;;;;;4.32;2.30;;;;;;;1.29;82.38;97993.41;5020475;28;20037;-64
2021/03/28 03:56:54;;;;;;;7.65;3.85;;;;;;;1.21;82.76;97985.91;5010997;28;20046;-62
2021/03/28 03:59:31;;;;;;;4.07;2.72;;;;;;;1.17;83.04;97984.00;5016737;28;20037;-62
2021/03/28 04:02:09;;;;;;;5.05;2.53;;;;;;;1.11;83.04;97981.31;5019637;28;20045;-62
2021/03/28 04:05:13;;;;;;;4.78;2.53;;;;;;;1.09;83.78;97988.09;5023478;28;20525;-64
2021/03/28 04:08:23;;;;;;;6.43;2.58;;;;;;;1.08;83.47;97983.75;5003393;28;20045;-63
2021/03/28 04:11:00;;;;;;;5.25;2.70;;;;;;;1.05;83.02;97990.50;4995579;28;20168;-64
2021/03/28 04:13:35;;;;;;;4.45;2.85;;;;;;;1.02;82.96;97988.34;5006802;28;20038;-63
2021/03/28 04:16:31;;;;;;;3.35;2.45;;;;;;;0.97;83.71;97991.06;5027269;28;20164;-64
2021/03/28 04:19:12;;;;;;;8.15;2.63;;;;;;;0.93;83.46;97984.59;5001296;28;20129;-64
2021/03/28 04:21:52;;;;;;;5.22;2.67;;;;;;;0.84;83.70;97989.72;5002787;28;20065;-64
2021/03/28 04:24:44;;;;;;;4.45;3.00;;;;;;;0.71;83.35;97993.00;5022047;28;20126;-63
2021/03/28 04:27:43;;;;;;;5.78;3.10;;;;;;;0.43;83.35;97997.03;4993103;28;20053;-63
2021/03/28 04:30:34;;;;;;;5.18;3.10;;;;;;;0.34;83.96;97994.88;5010132;28;20092;-64
2021/03/28 04:33:25;;;;;;;4.93;2.90;;;;;;;0.33;84.92;98003.22;5017975;28;20099;-63
2021/03/28 04:36:16;;;;;;;6.50;3.33;;;;;;;0.37;85.25;97996.22;5017115;28;20053;-64
2021/03/28 04:39:03;;;;;;;8.60;4.07;;;;;;;0.26;85.27;97995.41;5022832;28;20056;-64
2021/03/28 04:41:32;;;;;;;7.85;3.35;;;;;;;0.08;84.99;98004.00;5017783;28;20042;-64
2021/03/28 04:44:12;;;;;;;5.72;3.30;;;;;;;0.03;85.67;98007.47;5016189;28;20049;-63
2021/03/28 04:46:44;;;;;;;4.78;2.80;;;;;;;0.07;86.16;98007.75;5020949;28;20097;-63
2021/03/28 04:49:37;;;;;;;10.60;3.42;;;;;;;0.20;86.35;98015.34;5018688;28;20046;-62
2021/03/28 04:52:20;;;;;;;4.20;2.70;;;;;;;0.41;85.84;98012.66;4984245;28;20136;-62
2021/03/28 04:54:57;;;;;;;7.50;3.58;;;;;;;0.41;85.06;98016.16;5011418;28;20077;-63
2021/03/28 04:57:44;;;;;;;7.25;3.45;;;;;;;0.49;84.81;98012.94;5010468;28;20376;-63
2021/03/28 05:00:47;;;;;;;7.70;3.30;;;;;;;0.45;84.10;98013.72;5010706;28;20557;-62
2021/03/28 05:03:58;;;;;;;5.60;3.05;;;;;;;0.52;84.06;98030.44;5013903;28;20045;-63
2021/03/28 05:07:04;;;;;;;3.35;2.28;;;;;;;0.54;84.48;98031.81;5006633;28;20547;-63
2021/03/28 05:09:51;;;;;;;6.70;2.97;;;;;;;0.59;83.69;98030.19;5018625;28;20088;-64
2021/03/28 05:12:41;;;;;;;4.50;2.80;;;;;;;0.48;83.48;98032.88;5005858;28;20037;-62
2021/03/28 05:15:27;;;;;;;6.32;2.65;;;;;;;0.14;82.85;98043.34;5013123;28;20159;-63
2021/03/28 05:18:22;;;;;;;6.93;3.17;;;;;;;-0.10;84.57;98035.72;5017082;28;20042;-63
2021/03/28 05:21:30;;;;;;;8.05;3.20;;;;;;;0.18;85.54;98055.19;5018551;28;20046;-64
2021/03/28 05:24:18;;;;;;;6.38;2.90;;;;;;;0.44;85.08;98052.56;5023264;28;20052;-64
2021/03/28 05:27:13;;;;;;;4.80;2.80;;;;;;;1.17;84.22;98055.00;4971045;28;20057;-64
2021/03/28 05:29:56;;;;;;;3.83;2.65;;;;;;;1.94;82.66;98048.56;5013955;28;20041;-63
2021/03/28 05:32:59;;;;;;;10.52;2.80;;;;;;;2.34;78.51;98050.25;5014262;28;20622;-63
2021/03/28 05:35:50;;;;;;;3.88;2.40;;;;;;;3.04;74.80;98051.88;5014231;28;20049;-63
2021/03/28 05:38:43;;;;;;;4.95;2.42;;;;;;;3.90;69.59;98057.50;5007845;28;20037;-62
2021/03/28 05:41:26;;;;;;;5.10;2.38;;;;;;;4.48;67.88;98067.31;5014890;28;20038;-63
2021/03/28 05:44:10;;;;;;;3.63;2.20;;;;;;;4.99;65.76;98063.03;5019228;28;20073;-63
2021/03/28 05:46:59;;;;;;;4.68;2.00;;;;;;;5.45;63.28;98064.94;5022392;28;20046;-62
2021/03/28 05:49:47;;;;;;;4.40;2.03;;;;;;;5.69;61.52;98061.22;5001037;28;20077;-63
2021/03/28 05:52:41;;;;;;;6.63;2.33;;;;;;;6.05;61.28;98074.16;5009640;28;20070;-63
2021/03/28 05:55:21;;;;;;;5.05;1.90;;;;;;;6.67;59.17;98085.34;5014144;28;20042;-63
2021/03/28 05:58:17;;;;;;;3.78;1.90;;;;;;;7.26;57.39;98079.06;5022504;28;20521;-64
2021/03/28 06:01:09;;;;;;;5.03;2.33;;;;;;;7.58;55.79;98082.59;5029739;28;20064;-63
2021/03/28 06:04:21;;;;;;;4.85;1.60;;;;;;;7.96;54.76;98079.41;5029453;28;20050;-64
2021/03/28 06:07:24;;;;;;;6.10;1.90;;;;;;;8.71;52.62;98087.63;5015166;28;20145;-62
2021/03/28 06:10:08;;;;;;;7.88;2.30;;;;;;;9.69;49.46;98086.06;5011508;28;20406;-64
2021/03/28 06:13:10;;;;;;;5.75;1.92;;;;;;;10.34;47.42;98083.25;5015834;28;20469;-63
2021/03/28 06:15:47;;;;;;;5.72;1.85;;;;;;;10.56;46.54;98095.03;5025266;28;20564;-63
2021/03/28 06:18:25;;;;;;;5.57;2.03;;;;;;;9.77;48.91;98098.13;5020268;28;20046;-63
2021/03/28 06:21:25;;;;;;;3.63;2.15;;;;;;;9.21;50.57;98092.59;5026407;28;20394;-65
2021/03/28 06:24:02;;;;;;;4.82;2.17;;;;;;;9.18;50.79;98091.34;5027358;28;20109;-65
2021/03/28 06:27:03;;;;;;;5.80;1.70;;;;;;;8.12;52.92;98090.69;5013461;28;20038;-64
2021/03/28 06:30:14;;;;;;;6.60;1.90;;;;;;;7.46;55.62;98094.91;5007826;28;20499;-64
2021/03/28 06:33:17;;;;;;;6.47;2.08;;;;;;;4.10;65.89;98090.88;4989911;28;20126;-65
2021/03/28 06:36:00;;;;;;;4.45;2.05;;;;;;;3.10;72.91;98090.53;5008451;28;20154;-64
2021/03/28 06:38:38;;;;;;;7.53;2.50;;;;;;;4.70;67.92;98104.72;5017169;28;20045;-63
2021/03/28 06:41:13;;;;;;;5.38;2.10;;;;;;;5.88;60.53;98094.59;5013511;28;20109;-62
2021/03/28 06:43:59;;;;;;;3.53;2.25;;;;;;;6.36;62.50;98087.16;5018351;28;20053;-65
2021/03/28 06:46:39;;;;;;;5.07;1.65;;;;;;;6.97;58.15;98093.09;5012814;28;20137;-65
2021/03/28 06:49:04;;;;;;;;;;;;;;;7.65;57.46;98096.59;5013650;28;20127;-62
2021/03/28 06:51:35;;;;;;;3.63;1.77;;;;;;;7.25;57.65;98091.88;5013242;28;20036;-64
2021/03/28 06:54:22;;;;;;;5.70;2.15;;;;;;;6.74;60.69;98093.09;5011855;28;20042;-64
2021/03/28 06:57:15;;;;;;;7.45;2.05;;;;;;;7.15;59.74;98096.78;5014113;28;20571;-62
2021/03/28 07:00:05;;;;;;;4.82;2.20;;;;;;;7.73;58.75;98090.38;5019344;28;20045;-63
2021/03/28 07:02:43;;;;;;;4.97;1.65;;;;;;;9.44;53.64;98092.41;5019058;28;20049;-63
2021/03/28 07:05:39;;;;;;;3.28;1.65;;;;;;;9.33;53.18;98095.50;5012828;28;20033;-63
2021/03/28 07:08:05;;;;;;;4.47;1.80;;;;;;;12.30;47.44;98089.78;5000848;28;20121;-64
2021/03/28 07:11:05;;;;;;;5.20;1.60;;;;;;;12.45;44.31;98110.28;5005862;28;20141;-63
2021/03/28 07:13:55;;;;;;;3.83;1.60;;;;;;;11.81;48.12;98115.22;5000766;28;20045;-63
2021/03/28 07:16:34;;;;;;;5.07;1.73;;;;;;;11.54;47.99;98109.22;5022445;28;20172;-63
2021/03/28 07:19:27;;;;;;;4.13;1.50;;;;;;;13.31;44.05;98123.88;5012693;28;20064;-63
2021/03/28 07:22:07;;;;;;;6.90;2.30;;;;;;;10.61;47.55;98128.50;5009554;28;20537;-63
2021/03/28 07:24:44;;;;;;;4.90;2.40;;;;;;;9.84;51.50;98122.25;5007296;28;20070;-63
2021/03/28 07:27:31;;;;;;;8.05;2.35;;;;;;;8.35;54.42;98124.94;4996090;28;20038;-62
2021/03/28 07:30:35;;;;;;;6.70;2.42;;;;;;;8.74;54.17;98136.97;5006572;28;20395;-63
2021/03/28 07:33:25;;;;;;;6.65;2.30;;;;;;;10.68;48.74;98139.75;4995789;28;20095;-62
2021/03/28 07:35:52;;;;;;;;;;;;;;;12.96;43.85;98141.72;5005873;28;20046;-62
2021/03/28 07:38:36;;;;;;;5.40;1.77;;;;;;;14.62;39.82;98135.09;5017784;28;20015;-62
2021/03/28 07:41:36;;;;;;;4.72;1.85;;;;;;;14.02;40.21;98126.94;5017764;28;20116;-62
2021/03/28 07:44:15;;;;;;;6.07;2.30;;;;;;;15.38;37.68;98129.28;5021868;28;20052;-63
2021/03/28 07:47:15;;;;;;;5.07;2.30;;;;;;;15.01;38.15;98132.44;5013999;28;20133;-62
2021/03/28 07:50:02;;;;;;;5.18;1.88;;;;;;;14.86;38.66;98134.88;5022312;28;20474;-62
2021/03/28 07:53:05;;;;;;;4.07;1.85;;;;;;;15.12;38.46;98136.22;5019166;28;20061;-63
2021/03/28 07:55:31;;;;;;;5.22;2.05;;;;;;;14.21;39.83;98142.78;5007721;28;20620;-65
2021/03/28 07:58:18;;;;;;;4.68;1.80;;;;;;;11.21;47.83;98153.88;5005111;28;20088;-63
2021/03/28 08:00:53;;;;;;;3.03;1.85;;;;;;;10.19;50.97;98155.78;5014403;28;20130;-64
2021/03/28 08:03:56;;;;;;;7.25;2.70;;;;;;;8.60;55.85;98158.16;5006958;28;20034;-63
2021/03/28 08:06:43;;;;;;;4.88;2.30;;;;;;;11.97;48.47;98162.88;5010866;28;20037;-63
2021/03/28 08:09:28;;;;;;;6.68;1.80;;;;;;;14.83;40.95;98151.34;5009193;28;20708;-62
2021/03/28 08:11:53;;;;;;;6.35;2.08;;;;;;;14.43;40.39;98146.84;5012028;28;20080;-63
2021/03/28 08:14:49;;;;;;;5.47;1.83;;;;;;;12.05;44.99;98147.44;5012605;28;20080;-61
2021/03/28 08:17:24;;;;;;;5.93;2.30;;;;;;;13.43;41.30;98150.53;5013533;28;20136;-63
2021/03/28 08:20:02;;;;;;;8.60;1.83;;;;;;;15.27;37.82;98151.94;5013584;28;20130;-62
2021/03/28 08:22:49;;;;;;;7.22;2.13;;;;;;;15.83;36.53;98149.91;5010611;28;20049;-61
2021/03/28 08:25:36;;;;;;;4.75;2.00;;;;;;;16.77;35.38;98136.47;4998480;28;20073;-61
2021/03/28 08:28:32;;;;;;;5.78;2.13;;;;;;;17.53;33.19;98127.19;5015095;28;20092;-63
2021/03/28 08:31:20;;;;;;;4.53;1.90;;;;;;;17.64;33.73;98126.53;5011258;28;20136;-63
2021/03/28 08:34:04;;;;;;;4.63;2.08;;;;;;;16.30;35.89;98126.66;5009941;28;20065;-62
2021/03/28 08:36:58;;;;;;;6.53;3.00;;;;;;;12.73;44.08;98118.59;5014774;28;20052;-63
2021/03/28 08:39:29;;;;;;;7.47;3.58;;;;;;;14.33;41.65;98115.91;5005099;28;20554;-63
2021/03/28 08:42:06;;;;;;;4.97;2.30;;;;;;;15.52;39.97;98107.47;5022760;28;20041;-61
2021/03/28 08:44:55;;;;;;;4.97;1.80;;;;;;;15.23;39.58;98122.66;5018323;28;20100;-62
2021/03/28 08:47:51;;;;;;;4.50;2.15;;;;;;;13.55;42.10;98101.72;5013088;28;20038;-62
2021/03/28 08:51:05;;;;;;;7.07;2.30;;;;;;;11.99;47.87;98099.38;4998076;28;20494;-61
2021/03/28 08:53:43;;;;;;;6.40;2.28;;;;;;;12.69;48.51;98099.25;4939042;28;20214;-63
2021/03/28 08:56:15;;;;;;;7.07;2.47;;;;;;;13.80;47.14;98096.09;5017867;28;20045;-64
2021/03/28 08:58:53;;;;;;;5.68;2.65;;;;;;;13.04;46.50;98100.66;5003966;28;20411;-64
2021/03/28 09:01:29;;;;;;;6.43;2.60;;;;;;;13.48;48.05;98103.50;5000858;28;20145;-62
2021/03/28 09:04:24;;;;;;;5.03;2.83;;;;;;;14.27;44.39;98100.78;5013349;28;20046;-64
2021/03/28 09:07:12;;;;;;;9.23;2.50;;;;;;;13.82;44.64;98106.75;5005033;28;20069;-63
2021/03/28 09:09:46;;;;;;;4.43;1.88;;;;;;;14.32;41.64;98114.31;5012039;28;20049;-63
2021/03/28 09:12:37;;;;;;;3.70;1.67;;;;;;;14.23;40.53;98116.47;5007613;28;20042;-63
2021/03/28 09:15:22;;;;;;;3.70;1.40;;;;;;;13.48;40.47;98115.28;5018623;28;20049;-61
2021/03/28 09:18:09;;;;;;;4.72;1.80;;;;;;;14.63;38.54;98120.19;5014709;28;20044;-62
2021/03/28 09:20:53;;;;;;;6.95;3.75;;;;;;;14.91;35.73;98112.53;5008085;28;20050;-64
2021/03/28 09:23:37;;;;;;;5.95;2.35;;;;;;;15.81;33.08;98092.25;5020970;28;20099;-62
2021/03/28 09:26:05;;;;;;;4.35;1.20;;;;;;;16.38;32.78;98084.09;5004986;28;20129;-63
2021/03/28 09:28:59;;;;;;;6.07;1.52;;;;;;;16.49;32.67;98083.47;5005226;28;20049;-62
2021/03/28 09:31:35;;;;;;;3.10;1.30;;;;;;;15.69;33.04;98089.63;5007624;28;20049;-62
2021/03/28 09:34:09;;;;;;;6.03;1.27;;;;;;;15.97;31.55;98102.38;5026830;28;20116;-63
2021/03/28 09:37:02;;;;;;;3.78;1.45;;;;;;;15.44;32.37;98095.47;5024685;28;20513;-63
2021/03/28 09:39:46;;;;;;;7.45;2.70;;;;;;;15.19;34.11;98106.03;5007278;28;20045;-61
2021/03/28 09:42:39;;;;;;;5.03;1.70;;;;;;;14.61;36.65;98100.44;5020594;28;20073;-61
2021/03/28 09:45:10;;;;;;;3.05;1.35;;;;;;;15.54;32.72;98098.81;5001933;28;20402;-60
2021/03/28 09:47:57;;;;;;;5.75;1.30;;;;;;;16.04;32.96;98117.13;5016047;28;20048;-61
2021/03/28 09:50:34;;;;;;;4.07;1.30;;;;;;;16.97;31.10;98119.78;5024294;23;20092;-61
2021/03/28 09:53:15;;;;;;;2.72;0.98;;;;;;;17.24;29.48;98109.44;5011511;28;20033;-62
2021/03/28 09:56:01;;;;;;;4.95;1.33;;;;;;;17.89;27.20;98113.75;5022885;28;20038;-60
2021/03/28 09:58:38;;;;;;;2.38;0.90;;;;;;;17.89;27.05;98116.53;5017187;28;20049;-60
2021/03/28 10:01:23;;;;;;;3.53;1.08;;;;;;;16.31;30.69;98111.63;5008308;28;20124;-63
2021/03/28 10:04:15;;;;;;;5.43;1.15;;;;;;;16.28;29.17;98112.41;5013912;28;20482;-61
2021/03/28 10:06:44;;;;;;;3.35;0.90;;;;;;;16.28;30.60;98117.09;5021233;28;20045;-61
2021/03/28 10:09:10;;;;;;;4.70;1.33;;;;;;;17.02;30.76;98102.84;5027914;28;20096;-57
2021/03/28 10:11:49;;;;;;;4.75;1.05;;;;;;;17.70;29.29;98103.66;5029037;28;20041;-60
2021/03/28 10:14:44;;;;;;;2.05;1.20;;;;;;;16.10;31.51;98097.47;5006592;28;20127;-59
2021/03/28 10:17:12;;;;;;;5.47;1.30;;;;;;;18.13;28.88;98097.72;4998190;28;20045;-59
2021/03/28 10:19:45;;;;;;;2.28;1.20;;;;;;;17.70;29.61;98083.44;5013199;28;20044;-62
2021/03/28 10:22:29;;;;;;;3.72;1.23;;;;;;;14.56;35.20;98090.44;4997725;28;20056;-59
2021/03/28 10:25:15;;;;;;;3.42;1.45;;;;;;;16.93;31.99;98099.56;5004275;28;20045;-59
2021/03/28 10:28:05;;;;;;;3.70;1.38;;;;;;;17.77;30.03;98097.38;5005093;28;20052;-60
2021/03/28 10:30:53;;;;;;;3.70;1.80;;;;;;;16.50;32.09;98104.44;5004701;28;20053;-62
2021/03/28 10:33:57;;;;;;;4.38;1.40;;;;;;;17.37;30.56;98098.91;4998078;28;20409;-58
2021/03/28 10:36:34;;;;;;;5.55;1.60;;;;;;;16.92;31.61;98100.72;4983681;28;20046;-60
2021/03/28 10:39:16;;;;;;;6.63;2.05;;;;;;;17.84;30.28;98102.19;5011104;28;20129;-59
2021/03/28 10:42:13;;;;;;;3.78;1.27;;;;;;;17.81;30.50;98098.22;5019039;28;20089;-60
2021/03/28 10:45:00;;;;;;;4.13;1.42;;;;;;;18.37;29.15;98098.34;5017588;28;20435;-60
2021/03/28 10:47:44;;;;;;;3.35;1.05;;;;;;;18.33;29.36;98090.00;5014205;28;20045;-59
2021/03/28 10:50:27;;;;;;;2.92;1.40;;;;;;;18.73;28.30;98080.75;5014636;28;20091;-63
2021/03/28 10:53:19;;;;;;;3.63;1.45;;;;;;;17.92;29.50;98081.72;5014770;28;20124;-61
2021/03/28 10:56:19;;;;;;;12.88;6.43;;;;;;;13.90;37.08;98080.97;5021028;28;20517;-59
2021/03/28 10:59:06;;;;;;;4.65;2.22;;;;;;;15.80;33.76;98074.06;5014924;28;20351;-57
2021/03/28 11:02:18;;;;;;;4.10;1.70;;;;;;;16.49;33.23;98069.66;5010459;28;20550;-59
2021/03/28 11:05:11;;;;;;;3.60;1.50;;;;;;;17.05;30.76;98060.59;5012276;28;20053;-62
2021/03/28 11:08:15;;;;;;;3.00;1.20;;;;;;;14.57;34.95;98064.47;5021808;28;20099;-61
2021/03/28 11:10:51;;;;;;;5.82;1.60;;;;;;;14.22;36.18;98064.44;5020493;28;20045;-58
2021/03/28 11:13:55;;;;;;;3.67;1.40;;;;;;;14.46;36.99;98066.22;5016275;28;20124;-60
2021/03/28 11:16:36;;;;;;;5.43;1.40;;;;;;;15.27;34.87;98057.31;4985596;28;20405;-59
2021/03/28 11:19:23;;;;;;;6.93;1.40;;;;;;;16.09;32.92;98046.94;5016492;28;20045;-57
2021/03/28 11:22:03;;;;;;;4.65;1.40;;;;;;;16.09;32.67;98044.16;5003791;28;20045;-57
2021/03/28 11:25:06;;;;;;;4.32;1.27;;;;;;;16.20;32.14;98042.34;5009094;28;20072;-58
2021/03/28 11:27:50;;;;;;;4.25;1.60;;;;;;;16.23;32.67;98040.84;5017093;28;20049;-61
2021/03/28 11:30:37;;;;;;;4.53;1.90;;;;;;;15.55;35.74;98047.94;5021173;28;20041;-62
2021/03/28 11:33:15;;;;;;;5.78;1.50;;;;;;;16.12;34.42;98039.88;5021351;28;20044;-65
2021/03/28 11:35:53;;;;;;;4.90;1.73;;;;;;;16.75;34.44;98043.94;5012806;28;20049;-59
2021/03/28 11:38:19;;;;;;;3.55;1.38;;;;;;;16.34;34.35;98032.69;5017435;28;20068;-60
2021/03/28 11:40:52;;;;;;;5.03;1.50;;;;;;;16.05;35.15;98035.81;5020678;28;20080;-58
2021/03/28 11:43:29;;;;;;;4.85;1.42;;;;;;;15.07;36.32;98043.50;5015676;28;20041;-59
2021/03/28 11:46:04;;;;;;;4.78;1.33;;;;;;;15.55;35.71;98043.22;5021895;28;20041;-57
2021/03/28 11:48:45;;;;;;;7.30;1.65;;;;;;;15.88;34.96;98039.06;5016583;28;20057;-62
2021/03/28 11:51:24;;;;;;;5.68;1.55;;;;;;;15.23;34.77;98042.63;4995918;28;20046;-61
2021/03/28 11:54:15;;;;;;;2.97;1.73;;;;;;;14.92;35.66;98047.13;5005318;28;20038;-61
2021/03/28 11:57:02;;;;;;;4.15;1.25;;;;;;;13.95;37.87;98047.66;5028530;28;20068;-63
2021/03/28 11:59:42;;;;;;;2.67;1.48;;;;;;;14.63;36.22;98031.94;5016953;28;20382;-55
2021/03/28 12:02:10;;;;;;;5.75;1.98;;;;;;;14.74;36.03;98037.69;5009317;28;20118;-62
2021/03/28 12:04:40;;;;;;;5.40;1.98;;;;;;;13.73;37.89;98036.13;5011707;28;20052;-60
2021/03/28 12:07:28;;;;;;;5.35;2.20;;;;;;;14.42;37.11;98035.81;5008804;28;20429;-60
2021/03/28 12:10:00;;;;;;;5.18;1.77;;;;;;;14.48;37.75;98036.31;5010036;28;20045;-59
2021/03/28 12:12:37;;;;;;;11.90;2.50;;;;;;;14.18;38.33;98031.31;5006093;28;20029;-61
2021/03/28 12:15:41;;;;;;;5.00;1.70;;;;;;;14.24;39.97;98023.56;5014279;28;20489;-63
2021/03/28 12:18:21;;;;;;;3.72;2.13;;;;;;;14.01;38.34;98029.72;5011403;28;20029;-60
2021/03/28 12:21:07;;;;;;;8.18;2.35;;;;;;;13.73;39.91;98025.09;5020072;28;20048;-57
2021/03/28 12:23:47;;;;;;;4.00;1.40;;;;;;;13.72;39.69;98018.03;5017886;28;20045;-59
2021/03/28 12:26:18;;;;;;;3.33;2.00;;;;;;;13.84;38.25;98017.13;5011259;28;20129;-56
2021/03/28 12:29:02;;;;;;;5.13;2.00;;;;;;;13.67;38.24;98020.25;5016353;28;20525;-61
2021/03/28 12:31:40;;;;;;;4.63;1.52;;;;;;;13.67;38.86;98015.53;4996792;28;20136;-60
2021/03/28 12:34:21;;;;;;;4.32;1.67;;;;;;;13.40;39.11;98019.94;4980548;28;20062;-63
2021/03/28 12:36:49;;;;;;;3.08;1.73;;;;;;;13.84;39.09;98021.81;5005319;28;20084;-59
2021/03/28 12:39:18;;;;;;;5.57;1.50;;;;;;;14.07;38.08;98011.75;5009009;28;20454;-60
2021/03/28 12:42:02;;;;;;;5.65;1.63;;;;;;;13.79;38.62;98003.59;5019312;28;20046;-59
2021/03/28 12:44:28;;;;;;;4.30;1.42;;;;;;;14.03;37.63;98005.38;5019093;28;20044;-57
2021/03/28 12:47:15;;;;;;;2.97;1.30;;;;;;;14.08;38.96;97998.78;5014149;28;20050;-59
2021/03/28 12:49:54;;;;;;;4.43;1.50;;;;;;;13.69;37.64;97998.66;5017936;28;20520;-59
2021/03/28 12:52:19;;;;;;;6.05;1.73;;;;;;;13.61;37.57;97997.66;5021141;28;20029;-61
2021/03/28 12:54:52;;;;;;;3.13;1.30;;;;;;;13.86;38.34;97994.72;5023371;28;20046;-59
2021/03/28 12:57:39;;;;;;;4.03;1.20;;;;;;;13.46;37.54;97988.25;5004067;28;20045;-58
2021/03/28 13:00:07;;;;;;;2.72;1.20;;;;;;;13.60;36.71;97992.53;5011519;28;20053;-65